createdAt,value
2022-08-24T00:03:12.656Z,15.12
2022-08-24T00:14:19.448Z,14.93
2022-08-24T00:25:19.259Z,14.73
2022-08-24T00:35:56.401Z,14.54
2022-08-24T00:46:32.976Z,14.34
2022-08-24T00:57:31.184Z,14.24
2022-08-24T01:08:08.685Z,14.24
2022-08-24T01:19:07.809Z,14.05
2022-08-24T01:30:05.193Z,13.95
2022-08-24T01:41:06.601Z,13.85
2022-08-24T01:52:07.916Z,13.75
2022-08-24T02:03:10.245Z,13.56
2022-08-24T02:14:10.761Z,13.46
2022-08-24T02:25:11.254Z,13.36
2022-08-24T02:36:25.492Z,13.26
2022-08-24T02:47:19.463Z,13.26
2022-08-24T02:58:21.124Z,13.27
2022-08-24T03:09:23.579Z,13.17
2022-08-24T03:20:23.691Z,13.17
2022-08-24T03:31:25.614Z,13.07
2022-08-24T03:42:29.041Z,13.07
2022-08-24T03:53:29.923Z,12.97
2022-08-24T04:04:31.947Z,12.87
2022-08-24T04:15:34.050Z,12.97
2022-08-24T04:26:44.516Z,12.97
2022-08-24T04:37:40.114Z,13.07
2022-08-24T04:48:40.227Z,13.07
2022-08-24T04:59:43.301Z,13.17
2022-08-24T05:10:45.982Z,13.46
2022-08-24T05:21:44.608Z,13.66
2022-08-24T05:32:22.401Z,13.85
2022-08-24T05:43:25.238Z,14.05
2022-08-24T05:54:25.870Z,14.24
2022-08-24T06:05:27.940Z,14.54
2022-08-24T06:16:31.354Z,14.83
2022-08-24T06:27:34.005Z,15.22
2022-08-24T06:38:36.987Z,15.81
2022-08-24T06:49:38.441Z,16.20
2022-08-24T07:00:37.359Z,16.69
2022-08-24T07:11:39.781Z,17.37
2022-08-24T07:22:41.115Z,17.67
2022-08-24T07:33:39.828Z,18.25
2022-08-24T07:44:38.584Z,18.64
2022-08-24T07:55:28.539Z,19.62
2022-08-24T08:06:06.326Z,20.70
2022-08-24T08:16:49.705Z,22.16
2022-08-24T08:27:51.447Z,22.65
2022-08-24T08:38:47.634Z,23.24
2022-08-24T08:49:30.606Z,23.83
2022-08-24T09:00:28.956Z,24.51
2022-08-24T09:11:30.275Z,24.81
2022-08-24T09:22:27.905Z,24.90
2022-08-24T09:33:27.322Z,25.10
2022-08-24T09:44:27.516Z,25.29
2022-08-24T09:55:28.873Z,26.27
2022-08-24T10:06:02.743Z,26.47
2022-08-24T10:17:01.953Z,27.15
2022-08-24T10:27:35.681Z,26.66
2022-08-24T10:38:37.265Z,27.44
2022-08-24T10:49:39.236Z,28.52
2022-08-24T11:00:38.640Z,28.13
2022-08-24T11:11:40.597Z,28.81
2022-08-24T11:22:30.194Z,28.13
2022-08-24T11:33:29.769Z,29.01
2022-08-24T11:44:32.770Z,33.12
2022-08-24T11:55:41.669Z,32.92
2022-08-24T12:06:32.514Z,30.38
2022-08-24T12:17:29.064Z,30.57
2022-08-24T12:28:16.562Z,30.77
2022-08-24T12:39:19.131Z,34.19
2022-08-24T12:50:16.691Z,35.66
2022-08-24T13:01:15.535Z,34.98
2022-08-24T13:12:11.639Z,30.77
2022-08-24T13:23:10.882Z,29.59
2022-08-24T13:33:51.144Z,34.48
2022-08-24T13:44:54.585Z,39.28
2022-08-24T13:55:55.195Z,35.86
2022-08-24T14:06:51.229Z,29.21
2022-08-24T14:17:46.290Z,27.35
2022-08-24T14:28:50.909Z,32.04
2022-08-24T14:39:59.446Z,36.44
2022-08-24T14:50:59.430Z,35.37
2022-08-24T15:01:51.517Z,28.81
2022-08-24T15:12:46.727Z,26.27
2022-08-24T15:23:20.040Z,24.02
2022-08-24T15:34:13.359Z,21.58
2022-08-24T15:44:46.861Z,20.89
2022-08-24T15:55:45.547Z,20.79
2022-08-24T16:06:38.245Z,20.60
2022-08-24T16:17:13.184Z,20.50
2022-08-24T16:28:12.393Z,20.11
2022-08-24T16:39:08.326Z,19.92
2022-08-24T16:49:58.807Z,19.82
2022-08-24T17:00:33.296Z,19.72
2022-08-24T17:11:33.683Z,19.72
2022-08-24T17:22:34.435Z,19.72
2022-08-24T17:33:34.875Z,19.52
2022-08-24T17:44:33.341Z,19.43
2022-08-24T17:55:39.047Z,19.23
2022-08-24T18:06:37.478Z,19.33
2022-08-24T18:17:13.119Z,19.23
2022-08-24T18:28:07.743Z,19.03
2022-08-24T18:39:08.494Z,18.94
2022-08-24T18:50:03.892Z,18.64
2022-08-24T19:01:05.125Z,18.55
2022-08-24T19:12:04.620Z,18.45
2022-08-24T19:23:04.218Z,18.45
2022-08-24T19:34:06.430Z,18.45
2022-08-24T19:45:06.216Z,18.25
2022-08-24T19:56:08.117Z,18.25
2022-08-24T20:06:43.510Z,18.15
2022-08-24T20:17:41.927Z,18.35
2022-08-24T20:28:41.967Z,18.25
2022-08-24T20:39:42.632Z,18.16
2022-08-24T20:50:44.815Z,17.96
2022-08-24T21:01:45.761Z,17.86
2022-08-24T21:12:45.407Z,17.76
2022-08-24T21:23:47.433Z,17.67
2022-08-24T21:34:46.127Z,17.57
2022-08-24T21:45:46.373Z,17.47
2022-08-24T21:56:45.542Z,17.37
2022-08-24T22:07:45.429Z,17.27
2022-08-24T22:18:44.046Z,17.08
2022-08-24T22:29:44.536Z,16.88
2022-08-24T22:40:45.945Z,16.79
2022-08-24T22:51:46.498Z,16.79
2022-08-24T23:02:43.494Z,16.69
2022-08-24T23:13:42.153Z,16.49
2022-08-24T23:24:39.690Z,16.49
2022-08-24T23:35:38.342Z,16.49
2022-08-24T23:46:15.305Z,16.49
2022-08-24T23:57:02.305Z,16.49
